createdAt,value
2017-11-15T00:00:59.510Z,53.37
2017-11-15T00:03:27.947Z,53.33
2017-11-15T00:05:57.173Z,58.10
2017-11-15T00:08:25.602Z,51.67
2017-11-15T00:10:54.038Z,56.00
2017-11-15T00:13:22.496Z,64.43
2017-11-15T00:15:50.978Z,56.43
2017-11-15T00:18:20.181Z,48.80
2017-11-15T00:20:48.621Z,59.07
2017-11-15T00:23:17.050Z,51.10
2017-11-15T00:25:45.489Z,52.73
2017-11-15T00:28:13.960Z,59.67
2017-11-15T00:30:42.424Z,45.03
2017-11-15T00:33:10.667Z,56.60
2017-11-15T00:35:39.122Z,55.60
2017-11-15T00:38:08.952Z,52.70
2017-11-15T00:40:37.381Z,46.83
2017-11-15T00:43:06.605Z,56.70
2017-11-15T00:45:35.797Z,49.30
2017-11-15T00:48:04.810Z,45.67
2017-11-15T00:50:33.257Z,56.20
2017-11-15T00:53:02.449Z,47.37
2017-11-15T00:55:30.891Z,44.23
2017-11-15T00:57:59.356Z,54.53
2017-11-15T01:00:27.449Z,51.43
2017-11-15T01:02:55.889Z,50.93
2017-11-15T01:05:25.107Z,63.47
2017-11-15T01:07:53.548Z,50.70
2017-11-15T01:10:21.991Z,66.10
2017-11-15T01:12:50.470Z,64.50
2017-11-15T01:15:18.900Z,55.43
2017-11-15T01:17:48.109Z,49.67
2017-11-15T01:20:16.575Z,53.77
2017-11-15T01:22:46.109Z,57.27
2017-11-15T01:25:14.542Z,49.37
2017-11-15T01:27:43.002Z,58.10
2017-11-15T01:30:11.463Z,50.73
2017-11-15T01:32:39.900Z,67.30
2017-11-15T01:35:09.125Z,59.57
2017-11-15T01:37:37.471Z,55.33
2017-11-15T01:40:06.674Z,57.83
2017-11-15T01:42:35.901Z,49.00
2017-11-15T01:45:04.334Z,51.27
2017-11-15T01:47:33.346Z,50.10
2017-11-15T01:50:01.797Z,50.37
2017-11-15T01:52:30.238Z,49.87
2017-11-15T01:54:58.883Z,53.20
2017-11-15T01:57:28.104Z,52.30
2017-11-15T01:59:57.145Z,55.37
2017-11-15T02:02:25.574Z,62.80
2017-11-15T02:04:53.841Z,59.83
2017-11-15T02:07:22.085Z,61.50
2017-11-15T02:09:51.331Z,62.33
2017-11-15T02:12:19.811Z,59.53
2017-11-15T02:14:48.242Z,59.37
2017-11-15T02:17:17.446Z,59.43
2017-11-15T02:19:46.007Z,62.47
2017-11-15T02:22:14.866Z,64.17
2017-11-15T02:24:42.637Z,52.87
2017-11-15T02:27:10.436Z,52.23
2017-11-15T02:29:38.879Z,53.47
2017-11-15T02:32:06.654Z,64.03
2017-11-15T02:34:34.450Z,51.63
2017-11-15T02:37:03.657Z,64.93
2017-11-15T02:39:32.010Z,56.30
2017-11-15T02:41:59.821Z,64.03
2017-11-15T02:44:27.922Z,55.70
2017-11-15T02:46:56.030Z,53.20
2017-11-15T02:49:24.925Z,55.33
2017-11-15T02:51:53.476Z,50.80
2017-11-15T02:54:23.431Z,59.77
2017-11-15T02:56:51.560Z,45.67
2017-11-15T02:59:19.674Z,56.77
2017-11-15T03:01:48.876Z,45.33
2017-11-15T03:04:17.339Z,51.67
2017-11-15T03:06:46.541Z,46.03
2017-11-15T03:09:15.747Z,53.13
2017-11-15T03:11:44.205Z,49.63
2017-11-15T03:14:13.407Z,48.30
2017-11-15T03:16:42.607Z,50.90
2017-11-15T03:19:11.855Z,46.00
2017-11-15T03:21:39.963Z,49.80
2017-11-15T03:24:08.403Z,50.87
2017-11-15T03:26:36.859Z,46.37
2017-11-15T03:29:04.970Z,45.07
2017-11-15T03:31:33.427Z,43.00
2017-11-15T03:34:01.921Z,49.07
2017-11-15T03:36:30.360Z,58.43
2017-11-15T03:38:58.792Z,50.90
2017-11-15T03:41:27.241Z,57.77
2017-11-15T03:43:55.019Z,50.90
2017-11-15T03:46:23.449Z,44.77
2017-11-15T03:48:52.516Z,48.13
2017-11-15T03:51:21.130Z,49.20
2017-11-15T03:53:50.332Z,54.70
2017-11-15T03:56:19.552Z,37.23
2017-11-15T03:58:47.987Z,47.43
2017-11-15T04:01:16.415Z,42.87
2017-11-15T04:03:44.881Z,35.23
2017-11-15T04:06:13.315Z,43.97
2017-11-15T04:08:41.753Z,48.43
2017-11-15T04:11:10.212Z,47.47
2017-11-15T04:13:38.651Z,47.50
2017-11-15T04:16:07.089Z,43.00
2017-11-15T04:18:36.135Z,42.70
2017-11-15T04:21:05.338Z,41.60
2017-11-15T04:23:34.358Z,38.33
2017-11-15T04:26:02.820Z,41.30
2017-11-15T04:28:32.049Z,39.97
2017-11-15T04:31:00.487Z,40.83
2017-11-15T04:33:29.709Z,40.23
2017-11-15T04:35:58.150Z,35.70
2017-11-15T04:38:26.633Z,34.90
2017-11-15T04:40:55.098Z,38.73
2017-11-15T04:43:23.526Z,39.40
2017-11-15T04:45:51.780Z,36.43
2017-11-15T04:48:21.008Z,34.90
2017-11-15T04:50:49.453Z,38.53
2017-11-15T04:53:18.655Z,40.50
2017-11-15T04:55:47.879Z,47.50
2017-11-15T04:58:16.320Z,38.47
2017-11-15T05:00:45.527Z,38.53
2017-11-15T05:03:14.750Z,35.00
2017-11-15T05:05:43.195Z,41.30
2017-11-15T05:08:12.400Z,39.57
2017-11-15T05:10:41.739Z,36.33
2017-11-15T05:13:10.182Z,37.30
2017-11-15T05:15:39.381Z,37.17
2017-11-15T05:18:08.617Z,36.23
2017-11-15T05:20:36.399Z,39.13
2017-11-15T05:23:04.174Z,39.00
2017-11-15T05:25:32.968Z,45.23
2017-11-15T05:28:01.083Z,43.00
2017-11-15T05:30:29.515Z,44.33
2017-11-15T05:32:57.976Z,41.77
2017-11-15T05:35:26.422Z,46.20
2017-11-15T05:37:54.854Z,34.90
2017-11-15T05:40:23.598Z,44.85
2017-11-15T05:42:52.318Z,46.63
2017-11-15T05:45:21.044Z,40.83
2017-11-15T05:47:49.961Z,41.45
2017-11-15T05:50:19.434Z,34.75
2017-11-15T05:52:48.646Z,35.65
2017-11-15T05:55:18.258Z,35.05
2017-11-15T05:57:46.693Z,38.45
2017-11-15T06:00:15.402Z,39.70
2017-11-15T06:02:44.162Z,35.78
2017-11-15T06:05:13.180Z,40.50
2017-11-15T06:07:41.680Z,39.15
2017-11-15T06:10:11.119Z,38.05
2017-11-15T06:12:39.781Z,37.08
2017-11-15T06:15:09.561Z,39.30
2017-11-15T06:17:38.758Z,39.77
2017-11-15T06:20:07.655Z,39.15
2017-11-15T06:22:37.057Z,42.33
2017-11-15T06:25:05.574Z,44.05
2017-11-15T06:27:34.311Z,50.20
2017-11-15T06:30:03.706Z,38.55
2017-11-15T06:32:33.346Z,45.83
2017-11-15T06:35:02.960Z,40.53
2017-11-15T06:37:32.334Z,45.10
2017-11-15T06:40:00.946Z,49.03
2017-11-15T06:42:30.581Z,44.47
2017-11-15T06:44:59.008Z,44.15
2017-11-15T06:47:27.458Z,58.90
2017-11-15T06:49:56.462Z,48.28
2017-11-15T06:52:25.177Z,45.67
2017-11-15T06:54:53.809Z,48.83
2017-11-15T06:57:22.402Z,53.90
2017-11-15T06:59:51.107Z,52.43
2017-11-15T07:02:19.949Z,47.77
2017-11-15T07:04:48.390Z,53.33
2017-11-15T07:07:16.977Z,58.90
2017-11-15T07:09:45.465Z,51.80
2017-11-15T07:12:14.980Z,46.70
2017-11-15T07:14:43.702Z,49.90
2017-11-15T07:17:12.559Z,59.90
2017-11-15T07:19:41.266Z,54.88
2017-11-15T07:22:10.495Z,42.33
2017-11-15T07:24:39.719Z,50.95
2017-11-15T07:27:08.486Z,45.33
2017-11-15T07:29:37.219Z,48.77
2017-11-15T07:32:05.793Z,43.35
2017-11-15T07:34:34.510Z,52.58
2017-11-15T07:37:03.306Z,50.83
2017-11-15T07:39:31.986Z,53.67
2017-11-15T07:42:00.534Z,42.20
2017-11-15T07:44:28.771Z,45.67
2017-11-15T07:46:57.306Z,52.03
2017-11-15T07:49:26.435Z,48.72
2017-11-15T07:51:56.050Z,60.47
2017-11-15T07:54:24.798Z,42.80
2017-11-15T07:56:53.236Z,46.20
2017-11-15T07:59:22.307Z,43.50
2017-11-15T08:01:51.745Z,48.30
2017-11-15T08:04:20.422Z,46.37
2017-11-15T08:06:49.896Z,36.90
2017-11-15T08:09:18.511Z,39.13
2017-11-15T08:11:47.406Z,38.58
2017-11-15T08:14:16.913Z,40.08
2017-11-15T08:16:45.531Z,42.20
2017-11-15T08:19:14.351Z,41.10
2017-11-15T08:21:42.950Z,37.53
2017-11-15T08:24:11.502Z,50.33
2017-11-15T08:26:40.074Z,37.93
2017-11-15T08:29:08.776Z,38.25
2017-11-15T08:31:37.871Z,42.40
2017-11-15T08:34:06.432Z,38.03
2017-11-15T08:36:34.867Z,44.43
2017-11-15T08:39:03.514Z,37.13
2017-11-15T08:41:32.242Z,42.50
2017-11-15T08:44:00.629Z,38.63
2017-11-15T08:46:28.622Z,39.80
2017-11-15T08:48:57.455Z,45.38
2017-11-15T08:51:25.553Z,36.63
2017-11-15T08:53:54.047Z,40.60
2017-11-15T08:56:22.907Z,36.50
2017-11-15T08:58:51.641Z,43.70
2017-11-15T09:01:20.060Z,39.30
2017-11-15T09:03:49.219Z,39.40
2017-11-15T09:06:17.940Z,39.70
2017-11-15T09:08:46.563Z,37.30
2017-11-15T09:11:15.584Z,37.03
2017-11-15T09:13:44.302Z,45.10
2017-11-15T09:16:12.786Z,40.30
2017-11-15T09:18:42.266Z,35.60
2017-11-15T09:21:11.059Z,31.20
2017-11-15T09:23:39.787Z,40.50
2017-11-15T09:26:08.310Z,37.87
2017-11-15T09:28:36.855Z,45.17
2017-11-15T09:31:06.158Z,41.93
2017-11-15T09:33:34.590Z,40.50
2017-11-15T09:36:04.072Z,40.70
2017-11-15T09:38:33.019Z,35.55
2017-11-15T09:41:03.240Z,37.70
2017-11-15T09:43:31.678Z,35.50
2017-11-15T09:46:00.407Z,38.67
2017-11-15T09:48:29.110Z,42.83
2017-11-15T09:50:57.542Z,39.97
2017-11-15T09:53:26.249Z,31.00
2017-11-15T09:55:54.960Z,32.78
2017-11-15T09:58:23.654Z,38.30
2017-11-15T10:00:52.446Z,37.75
2017-11-15T10:03:20.972Z,40.33
2017-11-15T10:05:50.452Z,44.43
2017-11-15T10:08:19.102Z,29.10
2017-11-15T10:10:47.830Z,36.37
2017-11-15T10:13:16.549Z,38.00
2017-11-15T10:15:46.058Z,32.28
2017-11-15T10:18:14.526Z,40.23
2017-11-15T10:20:44.003Z,34.47
2017-11-15T10:23:12.472Z,30.60
2017-11-15T10:25:41.707Z,32.10
2017-11-15T10:28:11.177Z,28.23
2017-11-15T10:30:40.013Z,26.87
2017-11-15T10:33:08.745Z,38.90
2017-11-15T10:35:37.938Z,33.67
2017-11-15T10:38:06.491Z,40.93
2017-11-15T10:40:35.033Z,23.10
2017-11-15T10:43:04.498Z,32.15
2017-11-15T10:45:32.972Z,28.07
2017-11-15T10:48:01.711Z,23.70
2017-11-15T10:50:30.251Z,26.10
2017-11-15T10:52:59.447Z,22.62
2017-11-15T10:55:28.045Z,30.20
2017-11-15T10:57:56.600Z,27.60
2017-11-15T11:00:41.027Z,25.00
2017-11-15T11:03:09.508Z,31.63
2017-11-15T11:05:38.723Z,29.42
2017-11-15T11:08:07.363Z,27.60
2017-11-15T11:10:36.332Z,25.02
2017-11-15T11:13:05.394Z,29.17
2017-11-15T11:15:33.519Z,23.10
2017-11-15T11:18:03.277Z,25.03
2017-11-15T11:20:31.987Z,32.10
2017-11-15T11:23:00.906Z,32.65
2017-11-15T11:25:29.406Z,26.58
2017-11-15T11:27:58.239Z,21.95
2017-11-15T11:30:28.496Z,26.95
2017-11-15T11:32:58.159Z,27.63
2017-11-15T11:35:26.593Z,27.57
2017-11-15T11:37:56.087Z,27.98
2017-11-15T11:40:24.829Z,24.13
2017-11-15T11:42:53.647Z,29.45
2017-11-15T11:45:23.195Z,24.73
2017-11-15T11:47:52.660Z,23.67
2017-11-15T11:50:21.092Z,27.93
2017-11-15T11:52:49.763Z,32.27
2017-11-15T11:55:18.625Z,27.15
2017-11-15T11:57:47.051Z,31.77
2017-11-15T12:00:14.839Z,30.80
2017-11-15T12:02:44.540Z,28.62
2017-11-15T12:05:13.262Z,29.35
2017-11-15T12:07:42.958Z,29.67
2017-11-15T12:10:11.423Z,30.00
2017-11-15T12:12:40.248Z,28.63
2017-11-15T12:15:09.740Z,27.02
2017-11-15T12:17:38.598Z,32.28
2017-11-15T12:20:07.206Z,24.97
2017-11-15T12:22:36.695Z,31.75
2017-11-15T12:25:05.134Z,36.10
2017-11-15T12:27:34.030Z,32.30
2017-11-15T12:30:03.144Z,32.60
2017-11-15T12:32:31.568Z,27.30
2017-11-15T12:35:01.049Z,33.50
2017-11-15T12:37:29.544Z,28.73
2017-11-15T12:39:58.122Z,28.13
2017-11-15T12:42:26.229Z,31.67
2017-11-15T12:44:54.723Z,30.37
2017-11-15T12:47:23.145Z,34.17
2017-11-15T12:49:51.245Z,40.13
2017-11-15T12:52:20.044Z,44.90
2017-11-15T12:54:49.957Z,33.88
2017-11-15T12:57:18.385Z,39.70
2017-11-15T12:59:47.245Z,38.60
2017-11-15T13:02:15.969Z,43.37
2017-11-15T13:04:45.163Z,41.87
2017-11-15T13:07:13.945Z,47.97
2017-11-15T13:09:42.665Z,39.77
2017-11-15T13:12:11.337Z,41.70
2017-11-15T13:14:40.070Z,57.53
2017-11-15T13:17:08.214Z,63.25
2017-11-15T13:19:36.227Z,46.87
2017-11-15T13:22:04.808Z,49.72
2017-11-15T13:24:33.343Z,41.50
2017-11-15T13:27:01.860Z,47.90
2017-11-15T13:29:30.561Z,49.00
2017-11-15T13:31:58.946Z,47.15
2017-11-15T13:34:27.331Z,45.15
2017-11-15T13:36:55.746Z,51.00
2017-11-15T13:39:24.454Z,50.55
2017-11-15T13:41:53.162Z,50.28
2017-11-15T13:44:22.704Z,49.43
2017-11-15T13:46:51.148Z,51.53
2017-11-15T13:49:19.864Z,46.97
2017-11-15T13:51:48.437Z,46.40
2017-11-15T13:54:17.248Z,52.92
2017-11-15T13:56:47.026Z,64.57
2017-11-15T13:59:15.882Z,46.80
2017-11-15T14:01:44.312Z,47.53
2017-11-15T14:04:13.094Z,59.33
2017-11-15T14:06:41.577Z,53.93
2017-11-15T14:09:09.826Z,59.57
2017-11-15T14:11:38.523Z,55.42
2017-11-15T14:14:07.260Z,49.80
2017-11-15T14:16:35.699Z,64.23
2017-11-15T14:19:04.140Z,69.47
2017-11-15T14:21:32.616Z,63.50
2017-11-15T14:24:02.151Z,70.35
2017-11-15T14:26:31.347Z,67.70
2017-11-15T14:29:00.082Z,59.70
2017-11-15T14:31:28.779Z,58.95
2017-11-15T14:33:57.813Z,69.15
2017-11-15T14:36:26.892Z,58.83
2017-11-15T14:38:55.498Z,60.40
2017-11-15T14:41:24.150Z,61.22
2017-11-15T14:43:52.641Z,56.53
2017-11-15T14:46:21.501Z,64.68
2017-11-15T14:48:49.942Z,61.37
2017-11-15T14:51:19.446Z,52.80
2017-11-15T14:53:49.218Z,65.25
2017-11-15T14:56:18.849Z,56.63
2017-11-15T14:58:47.656Z,65.43
2017-11-15T15:01:16.237Z,59.40
2017-11-15T15:03:45.704Z,54.43
2017-11-15T15:06:14.625Z,49.55
2017-11-15T15:08:44.410Z,68.90
2017-11-15T15:11:14.159Z,68.40
2017-11-15T15:13:43.702Z,61.80
2017-11-15T15:16:12.426Z,59.20
2017-11-15T15:18:41.832Z,53.05
2017-11-15T15:21:10.616Z,51.25
2017-11-15T15:23:39.386Z,59.13
2017-11-15T15:26:08.607Z,59.70
2017-11-15T15:28:37.320Z,54.70
2017-11-15T15:31:06.036Z,62.83
2017-11-15T15:33:34.486Z,50.53
2017-11-15T15:36:03.528Z,53.37
2017-11-15T15:38:33.142Z,46.70
2017-11-15T15:41:02.350Z,48.70
2017-11-15T15:43:31.845Z,44.90
2017-11-15T15:46:01.142Z,44.43
2017-11-15T15:48:29.654Z,52.17
2017-11-15T15:50:59.166Z,41.47
2017-11-15T15:53:27.598Z,44.13
2017-11-15T15:55:57.303Z,48.10
2017-11-15T15:58:26.177Z,44.00
2017-11-15T16:00:54.769Z,47.23
2017-11-15T16:03:23.638Z,46.00
2017-11-15T16:05:52.997Z,48.50
2017-11-15T16:08:22.107Z,58.72
2017-11-15T16:10:50.610Z,53.83
2017-11-15T16:13:19.087Z,43.42
2017-11-15T16:15:47.800Z,49.42
2017-11-15T16:18:16.501Z,44.30
2017-11-15T16:20:45.244Z,47.17
2017-11-15T16:23:13.968Z,50.88
2017-11-15T16:25:43.164Z,48.67
2017-11-15T16:28:12.390Z,42.17
2017-11-15T16:30:42.139Z,50.30
2017-11-15T16:33:10.853Z,46.53
2017-11-15T16:35:39.577Z,45.28
2017-11-15T16:38:09.052Z,44.38
2017-11-15T16:40:37.505Z,55.12
2017-11-15T16:43:06.251Z,51.45
2017-11-15T16:45:34.987Z,51.10
2017-11-15T16:48:04.176Z,54.10
2017-11-15T16:50:32.933Z,57.23
2017-11-15T16:53:01.774Z,57.00
2017-11-15T16:55:30.490Z,49.33
2017-11-15T16:57:59.978Z,56.83
2017-11-15T17:00:30.099Z,57.47
2017-11-15T17:02:58.868Z,64.15
2017-11-15T17:05:27.608Z,54.72
2017-11-15T17:07:56.329Z,56.27
2017-11-15T17:10:25.530Z,64.67
2017-11-15T17:12:54.552Z,51.25
2017-11-15T17:15:23.325Z,52.27
2017-11-15T17:17:52.017Z,50.83
2017-11-15T17:20:20.873Z,53.35
2017-11-15T17:22:49.732Z,54.20
2017-11-15T17:25:18.417Z,60.00
2017-11-15T17:27:47.089Z,61.77
2017-11-15T17:30:16.774Z,71.30
2017-11-15T17:32:45.477Z,51.03
2017-11-15T17:35:13.707Z,61.90
2017-11-15T17:37:42.440Z,49.88
2017-11-15T17:40:11.946Z,61.00
2017-11-15T17:42:40.690Z,59.97
2017-11-15T17:45:09.388Z,55.97
2017-11-15T17:47:37.851Z,57.43
2017-11-15T17:50:07.451Z,59.72
2017-11-15T17:52:36.182Z,51.90
2017-11-15T17:55:04.694Z,48.72
2017-11-15T17:57:33.150Z,49.00
2017-11-15T18:00:02.482Z,50.30
2017-11-15T18:02:31.192Z,57.55
2017-11-15T18:05:00.531Z,62.20
2017-11-15T18:07:29.535Z,52.42
2017-11-15T18:09:58.306Z,52.15
2017-11-15T18:12:27.882Z,57.67
2017-11-15T18:14:58.561Z,54.00
2017-11-15T18:17:28.043Z,48.60
2017-11-15T18:19:56.643Z,51.67
2017-11-15T18:22:25.571Z,42.85
2017-11-15T18:24:54.882Z,53.08
2017-11-15T18:27:23.618Z,49.03
2017-11-15T18:29:52.586Z,46.53
2017-11-15T18:32:20.975Z,49.83
2017-11-15T18:34:51.081Z,38.95
2017-11-15T18:37:19.846Z,49.13
2017-11-15T18:39:49.066Z,50.60
2017-11-15T18:42:17.748Z,44.40
2017-11-15T18:44:46.190Z,49.25
2017-11-15T18:47:15.723Z,49.10
2017-11-15T18:49:45.445Z,52.22
2017-11-15T18:52:14.939Z,55.28
2017-11-15T18:54:43.689Z,50.53
2017-11-15T18:57:12.505Z,44.58
2017-11-15T18:59:41.062Z,48.80
2017-11-15T19:02:11.045Z,56.03
2017-11-15T19:04:40.810Z,41.22
2017-11-15T19:07:09.517Z,49.50
2017-11-15T19:09:38.311Z,49.57
2017-11-15T19:12:07.057Z,42.40
2017-11-15T19:14:36.282Z,45.17
2017-11-15T19:17:04.449Z,47.17
2017-11-15T19:19:32.767Z,48.13
2017-11-15T19:22:02.321Z,48.83
2017-11-15T19:24:30.862Z,42.40
2017-11-15T19:26:59.309Z,50.33
2017-11-15T19:29:28.063Z,50.78
2017-11-15T19:31:56.729Z,54.45
2017-11-15T19:34:25.458Z,47.95
2017-11-15T19:36:54.929Z,50.87
2017-11-15T19:39:23.469Z,47.35
2017-11-15T19:41:52.147Z,43.57
2017-11-15T19:44:20.708Z,39.07
2017-11-15T19:46:50.542Z,56.50
2017-11-15T19:49:19.278Z,46.33
2017-11-15T19:51:48.287Z,51.25
2017-11-15T19:54:16.739Z,59.00
2017-11-15T19:56:46.347Z,52.58
2017-11-15T19:59:15.679Z,56.17
2017-11-15T20:01:44.641Z,46.87
2017-11-15T20:04:13.511Z,48.30
2017-11-15T20:06:42.215Z,52.53
2017-11-15T20:09:10.779Z,54.50
2017-11-15T20:11:39.488Z,41.70
2017-11-15T20:14:07.998Z,47.20
2017-11-15T20:16:37.522Z,49.63
2017-11-15T20:19:06.362Z,40.70
2017-11-15T20:21:36.324Z,40.97
2017-11-15T20:24:04.449Z,40.63
2017-11-15T20:26:33.663Z,43.97
2017-11-15T20:29:02.209Z,44.03
2017-11-15T20:31:30.951Z,41.37
2017-11-15T20:33:59.745Z,49.27
2017-11-15T20:36:29.091Z,42.80
2017-11-15T20:38:57.934Z,54.05
2017-11-15T20:41:26.306Z,47.47
2017-11-15T20:43:55.790Z,44.15
2017-11-15T20:46:24.535Z,50.23
2017-11-15T20:48:52.979Z,50.97
2017-11-15T20:51:21.673Z,55.75
2017-11-15T20:53:50.174Z,53.67
2017-11-15T20:56:18.602Z,58.93
2017-11-15T20:58:47.474Z,54.95
2017-11-15T21:01:16.362Z,49.10
2017-11-15T21:03:45.070Z,57.90
2017-11-15T21:06:13.509Z,54.00
2017-11-15T21:08:41.973Z,55.12
2017-11-15T21:11:10.802Z,48.90
2017-11-15T21:13:39.238Z,56.73
2017-11-15T21:16:08.025Z,46.75
2017-11-15T21:18:36.891Z,49.10
2017-11-15T21:21:06.668Z,45.22
2017-11-15T21:23:35.560Z,48.80
2017-11-15T21:26:04.730Z,42.20
2017-11-15T21:28:34.055Z,46.80
2017-11-15T21:31:02.777Z,45.90
2017-11-15T21:33:31.494Z,41.20
2017-11-15T21:36:00.381Z,42.73
2017-11-15T21:38:29.828Z,57.00
2017-11-15T21:40:58.537Z,51.70
2017-11-15T21:43:27.408Z,48.13
2017-11-15T21:45:56.921Z,48.72
2017-11-15T21:48:25.378Z,52.05
2017-11-15T21:50:55.096Z,46.22
2017-11-15T21:53:23.866Z,58.80
2017-11-15T21:55:52.472Z,48.30
2017-11-15T21:58:21.155Z,53.77
2017-11-15T22:00:49.665Z,53.10
2017-11-15T22:03:18.407Z,50.78
2017-11-15T22:05:47.651Z,56.53
2017-11-15T22:08:16.422Z,53.72
2017-11-15T22:10:44.856Z,54.20
2017-11-15T22:13:14.071Z,57.70
2017-11-15T22:15:43.434Z,52.90
2017-11-15T22:18:11.867Z,54.97
2017-11-15T22:20:40.361Z,52.00
2017-11-15T22:23:08.819Z,52.50
2017-11-15T22:25:37.252Z,48.40
2017-11-15T22:28:05.686Z,46.57
2017-11-15T22:30:34.135Z,62.60
2017-11-15T22:33:03.342Z,54.67
2017-11-15T22:35:31.794Z,59.10
2017-11-15T22:38:00.254Z,59.13
2017-11-15T22:40:28.694Z,59.27
2017-11-15T22:42:57.134Z,65.13
2017-11-15T22:45:25.593Z,63.47
2017-11-15T22:47:54.043Z,55.13
2017-11-15T22:50:22.477Z,62.20
2017-11-15T22:52:50.941Z,53.60
2017-11-15T22:55:19.379Z,74.07
2017-11-15T22:57:47.828Z,57.47
2017-11-15T23:00:17.103Z,57.63
2017-11-15T23:02:45.534Z,61.03
2017-11-15T23:05:14.085Z,59.77
2017-11-15T23:07:43.311Z,62.67
2017-11-15T23:10:11.771Z,68.40
2017-11-15T23:12:40.284Z,70.20
2017-11-15T23:15:08.930Z,67.57
2017-11-15T23:17:38.132Z,68.90
2017-11-15T23:20:07.386Z,73.90
2017-11-15T23:22:35.873Z,60.10
2017-11-15T23:25:04.172Z,56.17
2017-11-15T23:27:33.392Z,55.97
2017-11-15T23:30:01.868Z,61.10
2017-11-15T23:32:31.077Z,61.43
2017-11-15T23:34:59.541Z,67.20
2017-11-15T23:37:28.781Z,56.30
2017-11-15T23:39:57.234Z,61.30
2017-11-15T23:42:25.694Z,73.33
2017-11-15T23:44:54.936Z,57.67
2017-11-15T23:47:23.555Z,60.90
2017-11-15T23:49:51.987Z,58.17
2017-11-15T23:52:20.260Z,59.87
2017-11-15T23:54:48.692Z,61.70
2017-11-15T23:57:17.125Z,71.57
2017-11-15T23:59:45.588Z,68.07
